sensor_id;sensor_type;location;lat;lon;timestamp;P1;durP1;ratioP1;P2;durP2;ratioP2
6141;SDS011;71289;51.552;6.210;2023-07-28T00:00:33;13.10;;;8.80;;
6141;SDS011;71289;51.552;6.210;2023-07-28T00:02:58;12.20;;;8.27;;
6141;SDS011;71289;51.552;6.210;2023-07-28T00:05:24;13.77;;;8.53;;
6141;SDS011;71289;51.552;6.210;2023-07-28T00:07:50;12.73;;;8.57;;
6141;SDS011;71289;51.552;6.210;2023-07-28T00:10:15;12.73;;;8.77;;
6141;SDS011;71289;51.552;6.210;2023-07-28T00:12:41;10.57;;;7.97;;
6141;SDS011;71289;51.552;6.210;2023-07-28T00:15:07;12.17;;;8.30;;
6141;SDS011;71289;51.552;6.210;2023-07-28T00:17:32;9.83;;;7.17;;
6141;SDS011;71289;51.552;6.210;2023-07-28T00:19:58;14.30;;;8.67;;
6141;SDS011;71289;51.552;6.210;2023-07-28T00:22:23;14.20;;;9.17;;
6141;SDS011;71289;51.552;6.210;2023-07-28T00:24:49;14.07;;;8.63;;
6141;SDS011;71289;51.552;6.210;2023-07-28T00:27:14;13.50;;;8.33;;
6141;SDS011;71289;51.552;6.210;2023-07-28T00:29:40;14.97;;;8.93;;
6141;SDS011;71289;51.552;6.210;2023-07-28T00:32:06;14.73;;;8.50;;
6141;SDS011;71289;51.552;6.210;2023-07-28T00:34:32;12.60;;;9.00;;
6141;SDS011;71289;51.552;6.210;2023-07-28T00:36:59;15.27;;;10.00;;
6141;SDS011;71289;51.552;6.210;2023-07-28T00:39:24;20.37;;;9.57;;
6141;SDS011;71289;51.552;6.210;2023-07-28T00:41:50;12.77;;;8.20;;
6141;SDS011;71289;51.552;6.210;2023-07-28T00:44:15;10.77;;;7.47;;
6141;SDS011;71289;51.552;6.210;2023-07-28T00:46:42;13.33;;;8.33;;
6141;SDS011;71289;51.552;6.210;2023-07-28T00:49:08;11.70;;;8.07;;
6141;SDS011;71289;51.552;6.210;2023-07-28T00:51:35;12.83;;;8.80;;
6141;SDS011;71289;51.552;6.210;2023-07-28T00:54:02;14.90;;;9.63;;
6141;SDS011;71289;51.552;6.210;2023-07-28T00:56:30;11.47;;;7.90;;
6141;SDS011;71289;51.552;6.210;2023-07-28T00:58:56;12.63;;;8.70;;
6141;SDS011;71289;51.552;6.210;2023-07-28T01:01:22;12.43;;;8.17;;
6141;SDS011;71289;51.552;6.210;2023-07-28T01:03:48;11.00;;;8.43;;
6141;SDS011;71289;51.552;6.210;2023-07-28T01:06:26;15.20;;;9.30;;
6141;SDS011;71289;51.552;6.210;2023-07-28T01:09:00;10.80;;;8.00;;
6141;SDS011;71289;51.552;6.210;2023-07-28T01:11:30;13.40;;;7.40;;
6141;SDS011;71289;51.552;6.210;2023-07-28T01:13:56;12.97;;;7.90;;
6141;SDS011;71289;51.552;6.210;2023-07-28T01:16:21;11.67;;;9.37;;
6141;SDS011;71289;51.552;6.210;2023-07-28T01:18:47;12.40;;;8.80;;
6141;SDS011;71289;51.552;6.210;2023-07-28T01:21:14;13.33;;;9.17;;
6141;SDS011;71289;51.552;6.210;2023-07-28T01:26:14;12.87;;;8.60;;
6141;SDS011;71289;51.552;6.210;2023-07-28T01:28:41;16.13;;;9.97;;
6141;SDS011;71289;51.552;6.210;2023-07-28T01:31:08;19.53;;;10.00;;
6141;SDS011;71289;51.552;6.210;2023-07-28T01:33:34;15.43;;;8.20;;
6141;SDS011;71289;51.552;6.210;2023-07-28T01:36:00;13.90;;;8.87;;
6141;SDS011;71289;51.552;6.210;2023-07-28T01:38:26;13.73;;;10.57;;
6141;SDS011;71289;51.552;6.210;2023-07-28T01:40:53;14.50;;;9.40;;
6141;SDS011;71289;51.552;6.210;2023-07-28T01:43:19;14.33;;;10.20;;
6141;SDS011;71289;51.552;6.210;2023-07-28T01:45:44;14.40;;;9.80;;
6141;SDS011;71289;51.552;6.210;2023-07-28T01:48:10;14.73;;;10.53;;
6141;SDS011;71289;51.552;6.210;2023-07-28T01:50:36;14.80;;;10.10;;
6141;SDS011;71289;51.552;6.210;2023-07-28T01:53:02;16.27;;;10.50;;
6141;SDS011;71289;51.552;6.210;2023-07-28T01:55:28;12.90;;;8.70;;
6141;SDS011;71289;51.552;6.210;2023-07-28T01:57:58;16.80;;;10.33;;
6141;SDS011;71289;51.552;6.210;2023-07-28T02:00:25;15.43;;;10.77;;
6141;SDS011;71289;51.552;6.210;2023-07-28T02:02:51;14.40;;;9.40;;
6141;SDS011;71289;51.552;6.210;2023-07-28T02:05:17;15.53;;;10.17;;
6141;SDS011;71289;51.552;6.210;2023-07-28T02:07:43;13.43;;;10.30;;
6141;SDS011;71289;51.552;6.210;2023-07-28T02:10:09;15.10;;;9.90;;
6141;SDS011;71289;51.552;6.210;2023-07-28T02:12:35;15.40;;;10.30;;
6141;SDS011;71289;51.552;6.210;2023-07-28T02:15:01;16.37;;;10.20;;
6141;SDS011;71289;51.552;6.210;2023-07-28T02:17:27;17.53;;;9.90;;
6141;SDS011;71289;51.552;6.210;2023-07-28T02:19:52;13.03;;;9.83;;
6141;SDS011;71289;51.552;6.210;2023-07-28T02:22:18;16.93;;;9.60;;
6141;SDS011;71289;51.552;6.210;2023-07-28T02:24:43;17.10;;;10.03;;
6141;SDS011;71289;51.552;6.210;2023-07-28T02:27:09;21.13;;;10.90;;
6141;SDS011;71289;51.552;6.210;2023-07-28T02:29:34;16.10;;;10.33;;
6141;SDS011;71289;51.552;6.210;2023-07-28T02:32:00;15.23;;;9.93;;
6141;SDS011;71289;51.552;6.210;2023-07-28T02:34:25;21.80;;;12.20;;
6141;SDS011;71289;51.552;6.210;2023-07-28T02:36:51;14.93;;;9.40;;
6141;SDS011;71289;51.552;6.210;2023-07-28T02:39:16;18.13;;;11.27;;
6141;SDS011;71289;51.552;6.210;2023-07-28T02:41:42;18.33;;;9.70;;
6141;SDS011;71289;51.552;6.210;2023-07-28T02:44:07;23.30;;;10.10;;
6141;SDS011;71289;51.552;6.210;2023-07-28T02:46:33;15.37;;;9.93;;
6141;SDS011;71289;51.552;6.210;2023-07-28T02:48:58;24.90;;;11.80;;
6141;SDS011;71289;51.552;6.210;2023-07-28T02:51:24;21.40;;;10.67;;
6141;SDS011;71289;51.552;6.210;2023-07-28T02:53:49;15.30;;;10.90;;
6141;SDS011;71289;51.552;6.210;2023-07-28T02:56:15;18.17;;;11.63;;
6141;SDS011;71289;51.552;6.210;2023-07-28T02:58:40;15.20;;;10.20;;
6141;SDS011;71289;51.552;6.210;2023-07-28T03:01:06;20.13;;;10.20;;
6141;SDS011;71289;51.552;6.210;2023-07-28T03:03:32;20.57;;;11.30;;
6141;SDS011;71289;51.552;6.210;2023-07-28T03:05:57;20.80;;;11.43;;
6141;SDS011;71289;51.552;6.210;2023-07-28T03:08:23;23.50;;;12.40;;
6141;SDS011;71289;51.552;6.210;2023-07-28T03:10:48;27.83;;;12.00;;
6141;SDS011;71289;51.552;6.210;2023-07-28T03:13:14;19.20;;;10.17;;
6141;SDS011;71289;51.552;6.210;2023-07-28T03:15:39;25.60;;;12.23;;
6141;SDS011;71289;51.552;6.210;2023-07-28T03:18:05;26.60;;;12.77;;
6141;SDS011;71289;51.552;6.210;2023-07-28T03:20:30;24.73;;;12.00;;
6141;SDS011;71289;51.552;6.210;2023-07-28T03:22:56;19.17;;;11.67;;
6141;SDS011;71289;51.552;6.210;2023-07-28T03:25:21;24.90;;;12.50;;
6141;SDS011;71289;51.552;6.210;2023-07-28T03:27:47;21.23;;;11.80;;
6141;SDS011;71289;51.552;6.210;2023-07-28T03:30:12;26.80;;;12.30;;
6141;SDS011;71289;51.552;6.210;2023-07-28T03:32:38;21.77;;;12.40;;
6141;SDS011;71289;51.552;6.210;2023-07-28T03:35:04;19.80;;;13.10;;
6141;SDS011;71289;51.552;6.210;2023-07-28T03:37:33;27.97;;;13.30;;
6141;SDS011;71289;51.552;6.210;2023-07-28T03:39:59;26.50;;;13.40;;
6141;SDS011;71289;51.552;6.210;2023-07-28T03:42:25;27.83;;;13.00;;
6141;SDS011;71289;51.552;6.210;2023-07-28T03:44:51;25.30;;;13.37;;
6141;SDS011;71289;51.552;6.210;2023-07-28T03:47:16;30.67;;;12.30;;
6141;SDS011;71289;51.552;6.210;2023-07-28T03:49:42;25.30;;;13.60;;
6141;SDS011;71289;51.552;6.210;2023-07-28T03:52:07;29.00;;;13.90;;
6141;SDS011;71289;51.552;6.210;2023-07-28T03:54:33;28.77;;;13.37;;
6141;SDS011;71289;51.552;6.210;2023-07-28T03:56:58;24.77;;;13.37;;
6141;SDS011;71289;51.552;6.210;2023-07-28T03:59:24;26.00;;;12.63;;
6141;SDS011;71289;51.552;6.210;2023-07-28T04:01:49;23.23;;;12.97;;
6141;SDS011;71289;51.552;6.210;2023-07-28T04:04:15;22.50;;;12.27;;
6141;SDS011;71289;51.552;6.210;2023-07-28T04:06:45;22.10;;;12.60;;
6141;SDS011;71289;51.552;6.210;2023-07-28T04:09:13;29.43;;;12.47;;
6141;SDS011;71289;51.552;6.210;2023-07-28T04:11:39;23.30;;;11.77;;
6141;SDS011;71289;51.552;6.210;2023-07-28T04:14:05;26.57;;;13.80;;
6141;SDS011;71289;51.552;6.210;2023-07-28T04:16:31;27.47;;;13.27;;
6141;SDS011;71289;51.552;6.210;2023-07-28T04:18:57;31.37;;;14.20;;
6141;SDS011;71289;51.552;6.210;2023-07-28T04:21:23;28.50;;;13.10;;
6141;SDS011;71289;51.552;6.210;2023-07-28T04:23:49;28.73;;;13.07;;
6141;SDS011;71289;51.552;6.210;2023-07-28T04:26:15;30.60;;;13.97;;
6141;SDS011;71289;51.552;6.210;2023-07-28T04:28:42;37.33;;;14.30;;
6141;SDS011;71289;51.552;6.210;2023-07-28T04:31:07;31.37;;;15.00;;
6141;SDS011;71289;51.552;6.210;2023-07-28T04:33:33;32.37;;;15.07;;
6141;SDS011;71289;51.552;6.210;2023-07-28T04:35:59;41.03;;;15.47;;
6141;SDS011;71289;51.552;6.210;2023-07-28T04:38:27;36.33;;;15.93;;
6141;SDS011;71289;51.552;6.210;2023-07-28T04:40:52;37.00;;;14.60;;
6141;SDS011;71289;51.552;6.210;2023-07-28T04:43:18;42.40;;;18.30;;
6141;SDS011;71289;51.552;6.210;2023-07-28T04:45:44;36.40;;;15.50;;
6141;SDS011;71289;51.552;6.210;2023-07-28T04:48:10;33.10;;;14.00;;
6141;SDS011;71289;51.552;6.210;2023-07-28T04:50:35;44.10;;;17.10;;
6141;SDS011;71289;51.552;6.210;2023-07-28T04:53:01;42.30;;;18.70;;
6141;SDS011;71289;51.552;6.210;2023-07-28T04:55:27;53.50;;;18.17;;
6141;SDS011;71289;51.552;6.210;2023-07-28T04:57:53;49.50;;;17.97;;
6141;SDS011;71289;51.552;6.210;2023-07-28T05:00:18;51.17;;;21.30;;
6141;SDS011;71289;51.552;6.210;2023-07-28T05:02:44;49.37;;;18.67;;
6141;SDS011;71289;51.552;6.210;2023-07-28T05:05:09;49.63;;;20.97;;
6141;SDS011;71289;51.552;6.210;2023-07-28T05:07:35;58.40;;;20.07;;
6141;SDS011;71289;51.552;6.210;2023-07-28T05:10:01;53.90;;;22.07;;
6141;SDS011;71289;51.552;6.210;2023-07-28T05:12:26;46.73;;;21.10;;
6141;SDS011;71289;51.552;6.210;2023-07-28T05:14:52;57.07;;;22.37;;
6141;SDS011;71289;51.552;6.210;2023-07-28T05:17:18;47.43;;;20.67;;
6141;SDS011;71289;51.552;6.210;2023-07-28T05:19:44;56.30;;;24.77;;
6141;SDS011;71289;51.552;6.210;2023-07-28T05:22:09;64.60;;;22.90;;
6141;SDS011;71289;51.552;6.210;2023-07-28T05:24:35;62.93;;;26.13;;
6141;SDS011;71289;51.552;6.210;2023-07-28T05:27:00;65.90;;;25.20;;
6141;SDS011;71289;51.552;6.210;2023-07-28T05:29:26;64.40;;;24.87;;
6141;SDS011;71289;51.552;6.210;2023-07-28T05:31:51;57.80;;;25.27;;
6141;SDS011;71289;51.552;6.210;2023-07-28T05:34:17;69.67;;;27.30;;
6141;SDS011;71289;51.552;6.210;2023-07-28T05:36:43;69.07;;;26.47;;
6141;SDS011;71289;51.552;6.210;2023-07-28T05:39:09;73.43;;;25.83;;
6141;SDS011;71289;51.552;6.210;2023-07-28T05:41:36;56.40;;;25.57;;
6141;SDS011;71289;51.552;6.210;2023-07-28T05:44:02;56.10;;;26.63;;
6141;SDS011;71289;51.552;6.210;2023-07-28T05:46:27;66.40;;;26.10;;
6141;SDS011;71289;51.552;6.210;2023-07-28T05:48:54;58.13;;;26.67;;
6141;SDS011;71289;51.552;6.210;2023-07-28T05:51:20;70.37;;;28.53;;
6141;SDS011;71289;51.552;6.210;2023-07-28T05:53:46;53.00;;;25.87;;
6141;SDS011;71289;51.552;6.210;2023-07-28T05:56:12;59.73;;;26.87;;
6141;SDS011;71289;51.552;6.210;2023-07-28T05:58:38;63.50;;;27.40;;
6141;SDS011;71289;51.552;6.210;2023-07-28T06:01:03;66.90;;;28.53;;
6141;SDS011;71289;51.552;6.210;2023-07-28T06:03:29;58.03;;;26.50;;
6141;SDS011;71289;51.552;6.210;2023-07-28T06:05:55;58.07;;;27.10;;
6141;SDS011;71289;51.552;6.210;2023-07-28T06:08:21;59.07;;;27.07;;
6141;SDS011;71289;51.552;6.210;2023-07-28T06:10:47;55.63;;;27.57;;
6141;SDS011;71289;51.552;6.210;2023-07-28T06:13:12;69.73;;;29.90;;
6141;SDS011;71289;51.552;6.210;2023-07-28T06:15:38;59.40;;;27.93;;
6141;SDS011;71289;51.552;6.210;2023-07-28T06:18:04;67.80;;;28.70;;
6141;SDS011;71289;51.552;6.210;2023-07-28T06:20:30;59.67;;;28.77;;
6141;SDS011;71289;51.552;6.210;2023-07-28T06:22:55;71.57;;;30.10;;
6141;SDS011;71289;51.552;6.210;2023-07-28T06:25:21;79.90;;;31.67;;
6141;SDS011;71289;51.552;6.210;2023-07-28T06:27:47;69.33;;;31.20;;
6141;SDS011;71289;51.552;6.210;2023-07-28T06:30:13;72.50;;;30.77;;
6141;SDS011;71289;51.552;6.210;2023-07-28T06:32:38;70.23;;;29.70;;
6141;SDS011;71289;51.552;6.210;2023-07-28T06:35:04;68.00;;;31.53;;
6141;SDS011;71289;51.552;6.210;2023-07-28T06:37:32;80.57;;;33.27;;
6141;SDS011;71289;51.552;6.210;2023-07-28T06:39:57;78.87;;;34.57;;
6141;SDS011;71289;51.552;6.210;2023-07-28T06:42:23;81.57;;;36.10;;
6141;SDS011;71289;51.552;6.210;2023-07-28T06:44:52;86.00;;;32.50;;
6141;SDS011;71289;51.552;6.210;2023-07-28T06:47:17;72.47;;;36.17;;
6141;SDS011;71289;51.552;6.210;2023-07-28T06:49:43;91.63;;;37.67;;
6141;SDS011;71289;51.552;6.210;2023-07-28T06:52:09;82.07;;;34.67;;
6141;SDS011;71289;51.552;6.210;2023-07-28T06:54:35;96.73;;;34.80;;
6141;SDS011;71289;51.552;6.210;2023-07-28T06:57:01;83.70;;;37.60;;
6141;SDS011;71289;51.552;6.210;2023-07-28T06:59:27;91.40;;;38.03;;
6141;SDS011;71289;51.552;6.210;2023-07-28T07:01:52;101.93;;;39.27;;
6141;SDS011;71289;51.552;6.210;2023-07-28T07:04:18;88.77;;;40.37;;
6141;SDS011;71289;51.552;6.210;2023-07-28T07:06:44;111.80;;;43.63;;
6141;SDS011;71289;51.552;6.210;2023-07-28T07:09:10;108.50;;;43.73;;
6141;SDS011;71289;51.552;6.210;2023-07-28T07:11:39;104.67;;;42.63;;
6141;SDS011;71289;51.552;6.210;2023-07-28T07:14:04;103.37;;;44.17;;
6141;SDS011;71289;51.552;6.210;2023-07-28T07:16:30;111.03;;;43.53;;
6141;SDS011;71289;51.552;6.210;2023-07-28T07:18:55;84.87;;;37.93;;
6141;SDS011;71289;51.552;6.210;2023-07-28T07:21:21;92.00;;;40.47;;
6141;SDS011;71289;51.552;6.210;2023-07-28T07:23:46;94.10;;;40.40;;
6141;SDS011;71289;51.552;6.210;2023-07-28T07:26:12;84.90;;;38.57;;
6141;SDS011;71289;51.552;6.210;2023-07-28T07:28:38;85.03;;;39.20;;
6141;SDS011;71289;51.552;6.210;2023-07-28T07:31:03;78.13;;;34.60;;
6141;SDS011;71289;51.552;6.210;2023-07-28T07:33:29;90.00;;;39.73;;
6141;SDS011;71289;51.552;6.210;2023-07-28T07:35:54;75.67;;;35.90;;
6141;SDS011;71289;51.552;6.210;2023-07-28T07:38:20;74.10;;;35.00;;
6141;SDS011;71289;51.552;6.210;2023-07-28T07:40:46;80.50;;;34.87;;
6141;SDS011;71289;51.552;6.210;2023-07-28T07:43:13;62.23;;;30.50;;
6141;SDS011;71289;51.552;6.210;2023-07-28T07:45:44;55.90;;;29.20;;
6141;SDS011;71289;51.552;6.210;2023-07-28T07:48:11;66.47;;;31.97;;
6141;SDS011;71289;51.552;6.210;2023-07-28T07:50:37;51.77;;;27.40;;
6141;SDS011;71289;51.552;6.210;2023-07-28T07:53:03;49.67;;;25.10;;
6141;SDS011;71289;51.552;6.210;2023-07-28T07:55:28;44.63;;;24.20;;
6141;SDS011;71289;51.552;6.210;2023-07-28T07:57:54;44.73;;;23.60;;
6141;SDS011;71289;51.552;6.210;2023-07-28T08:00:19;32.73;;;21.23;;
6141;SDS011;71289;51.552;6.210;2023-07-28T08:02:45;31.70;;;18.20;;
6141;SDS011;71289;51.552;6.210;2023-07-28T08:05:11;30.90;;;17.57;;
6141;SDS011;71289;51.552;6.210;2023-07-28T08:07:36;23.30;;;15.60;;
6141;SDS011;71289;51.552;6.210;2023-07-28T08:10:02;18.23;;;13.10;;
6141;SDS011;71289;51.552;6.210;2023-07-28T08:12:28;22.37;;;13.80;;
6141;SDS011;71289;51.552;6.210;2023-07-28T08:14:53;18.17;;;13.13;;
6141;SDS011;71289;51.552;6.210;2023-07-28T08:17:19;15.50;;;11.70;;
6141;SDS011;71289;51.552;6.210;2023-07-28T08:19:45;15.23;;;12.00;;
6141;SDS011;71289;51.552;6.210;2023-07-28T08:22:10;19.27;;;12.87;;
6141;SDS011;71289;51.552;6.210;2023-07-28T08:24:37;19.00;;;13.23;;
6141;SDS011;71289;51.552;6.210;2023-07-28T08:27:02;18.70;;;12.73;;
6141;SDS011;71289;51.552;6.210;2023-07-28T08:29:28;19.33;;;13.70;;
6141;SDS011;71289;51.552;6.210;2023-07-28T08:31:54;15.77;;;11.83;;
6141;SDS011;71289;51.552;6.210;2023-07-28T08:34:19;20.00;;;13.00;;
6141;SDS011;71289;51.552;6.210;2023-07-28T08:36:45;17.30;;;13.27;;
6141;SDS011;71289;51.552;6.210;2023-07-28T08:39:10;15.43;;;12.73;;
6141;SDS011;71289;51.552;6.210;2023-07-28T08:41:36;18.83;;;13.90;;
6141;SDS011;71289;51.552;6.210;2023-07-28T08:44:02;20.07;;;14.00;;
6141;SDS011;71289;51.552;6.210;2023-07-28T08:46:28;14.30;;;11.67;;
6141;SDS011;71289;51.552;6.210;2023-07-28T08:48:54;18.40;;;13.30;;
6141;SDS011;71289;51.552;6.210;2023-07-28T08:51:21;15.77;;;13.40;;
6141;SDS011;71289;51.552;6.210;2023-07-28T08:53:48;17.83;;;12.20;;
6141;SDS011;71289;51.552;6.210;2023-07-28T08:56:14;12.87;;;11.27;;
6141;SDS011;71289;51.552;6.210;2023-07-28T08:58:39;13.53;;;11.47;;
6141;SDS011;71289;51.552;6.210;2023-07-28T09:01:05;13.60;;;12.30;;
6141;SDS011;71289;51.552;6.210;2023-07-28T09:03:30;12.50;;;11.20;;
6141;SDS011;71289;51.552;6.210;2023-07-28T09:05:59;12.40;;;10.27;;
6141;SDS011;71289;51.552;6.210;2023-07-28T09:08:26;14.43;;;11.27;;
6141;SDS011;71289;51.552;6.210;2023-07-28T09:10:52;16.90;;;10.90;;
6141;SDS011;71289;51.552;6.210;2023-07-28T09:13:19;12.10;;;10.63;;
6141;SDS011;71289;51.552;6.210;2023-07-28T09:15:45;15.53;;;11.30;;
6141;SDS011;71289;51.552;6.210;2023-07-28T09:18:11;18.00;;;12.10;;
6141;SDS011;71289;51.552;6.210;2023-07-28T09:20:39;13.43;;;10.20;;
6141;SDS011;71289;51.552;6.210;2023-07-28T09:23:06;11.33;;;10.10;;
6141;SDS011;71289;51.552;6.210;2023-07-28T09:25:33;14.03;;;11.40;;
6141;SDS011;71289;51.552;6.210;2023-07-28T09:28:02;12.60;;;11.03;;
6141;SDS011;71289;51.552;6.210;2023-07-28T09:30:42;11.17;;;9.43;;
6141;SDS011;71289;51.552;6.210;2023-07-28T09:33:12;10.87;;;9.70;;
6141;SDS011;71289;51.552;6.210;2023-07-28T09:35:50;13.50;;;10.53;;
6141;SDS011;71289;51.552;6.210;2023-07-28T09:38:15;13.70;;;10.60;;
6141;SDS011;71289;51.552;6.210;2023-07-28T09:40:43;13.73;;;10.10;;
6141;SDS011;71289;51.552;6.210;2023-07-28T09:43:09;10.70;;;9.60;;
6141;SDS011;71289;51.552;6.210;2023-07-28T09:45:35;10.23;;;8.57;;
6141;SDS011;71289;51.552;6.210;2023-07-28T09:48:01;9.70;;;8.70;;
6141;SDS011;71289;51.552;6.210;2023-07-28T09:50:27;10.30;;;9.10;;
6141;SDS011;71289;51.552;6.210;2023-07-28T09:52:56;11.87;;;9.00;;
6141;SDS011;71289;51.552;6.210;2023-07-28T09:55:26;10.70;;;9.60;;
6141;SDS011;71289;51.552;6.210;2023-07-28T09:57:54;10.57;;;9.20;;
6141;SDS011;71289;51.552;6.210;2023-07-28T10:00:21;9.10;;;8.20;;
6141;SDS011;71289;51.552;6.210;2023-07-28T10:02:48;10.90;;;8.60;;
6141;SDS011;71289;51.552;6.210;2023-07-28T10:05:14;12.20;;;8.90;;
6141;SDS011;71289;51.552;6.210;2023-07-28T10:07:40;10.30;;;9.37;;
6141;SDS011;71289;51.552;6.210;2023-07-28T10:10:11;14.00;;;10.67;;
6141;SDS011;71289;51.552;6.210;2023-07-28T10:15:07;12.17;;;10.73;;
6141;SDS011;71289;51.552;6.210;2023-07-28T10:17:36;11.80;;;10.60;;
6141;SDS011;71289;51.552;6.210;2023-07-28T10:20:05;10.57;;;8.87;;
6141;SDS011;71289;51.552;6.210;2023-07-28T10:22:42;10.33;;;9.23;;
6141;SDS011;71289;51.552;6.210;2023-07-28T10:25:09;11.60;;;10.13;;
6141;SDS011;71289;51.552;6.210;2023-07-28T10:30:03;11.83;;;10.20;;
6141;SDS011;71289;51.552;6.210;2023-07-28T10:32:41;13.37;;;10.67;;
6141;SDS011;71289;51.552;6.210;2023-07-28T10:37:45;11.00;;;9.30;;
6141;SDS011;71289;51.552;6.210;2023-07-28T10:40:21;12.10;;;10.80;;
6141;SDS011;71289;51.552;6.210;2023-07-28T10:42:48;12.03;;;10.33;;
6141;SDS011;71289;51.552;6.210;2023-07-28T10:45:14;12.67;;;10.10;;
6141;SDS011;71289;51.552;6.210;2023-07-28T10:47:40;21.00;;;10.67;;
6141;SDS011;71289;51.552;6.210;2023-07-28T10:50:09;13.27;;;10.50;;
6141;SDS011;71289;51.552;6.210;2023-07-28T10:52:42;9.80;;;8.83;;
6141;SDS011;71289;51.552;6.210;2023-07-28T10:55:12;11.80;;;9.67;;
6141;SDS011;71289;51.552;6.210;2023-07-28T10:57:43;10.80;;;9.57;;
6141;SDS011;71289;51.552;6.210;2023-07-28T11:00:10;9.50;;;8.43;;
6141;SDS011;71289;51.552;6.210;2023-07-28T11:02:50;11.00;;;9.20;;
6141;SDS011;71289;51.552;6.210;2023-07-28T11:05:21;13.07;;;9.50;;
6141;SDS011;71289;51.552;6.210;2023-07-28T11:07:53;9.83;;;8.77;;
6141;SDS011;71289;51.552;6.210;2023-07-28T11:10:20;8.80;;;8.00;;
6141;SDS011;71289;51.552;6.210;2023-07-28T11:12:47;7.93;;;7.23;;
6141;SDS011;71289;51.552;6.210;2023-07-28T11:15:14;8.17;;;7.47;;
6141;SDS011;71289;51.552;6.210;2023-07-28T11:17:41;8.33;;;6.80;;
6141;SDS011;71289;51.552;6.210;2023-07-28T11:20:18;6.17;;;5.50;;
6141;SDS011;71289;51.552;6.210;2023-07-28T11:22:58;5.70;;;5.27;;
6141;SDS011;71289;51.552;6.210;2023-07-28T11:25:25;6.53;;;4.93;;
6141;SDS011;71289;51.552;6.210;2023-07-28T11:27:53;3.80;;;3.50;;
6141;SDS011;71289;51.552;6.210;2023-07-28T11:30:20;5.37;;;4.60;;
6141;SDS011;71289;51.552;6.210;2023-07-28T11:32:47;4.80;;;3.20;;
6141;SDS011;71289;51.552;6.210;2023-07-28T11:35:15;4.20;;;3.90;;
6141;SDS011;71289;51.552;6.210;2023-07-28T11:37:43;3.13;;;2.93;;
6141;SDS011;71289;51.552;6.210;2023-07-28T11:40:10;2.80;;;2.60;;
6141;SDS011;71289;51.552;6.210;2023-07-28T11:42:37;2.43;;;2.27;;
6141;SDS011;71289;51.552;6.210;2023-07-28T11:45:11;2.37;;;2.17;;
6141;SDS011;71289;51.552;6.210;2023-07-28T11:47:38;2.77;;;2.37;;
6141;SDS011;71289;51.552;6.210;2023-07-28T11:50:04;2.77;;;2.57;;
6141;SDS011;71289;51.552;6.210;2023-07-28T11:52:30;3.33;;;2.27;;
6141;SDS011;71289;51.552;6.210;2023-07-28T11:54:58;3.07;;;2.00;;
6141;SDS011;71289;51.552;6.210;2023-07-28T11:57:25;2.47;;;2.37;;
6141;SDS011;71289;51.552;6.210;2023-07-28T11:59:52;2.43;;;2.20;;
6141;SDS011;71289;51.552;6.210;2023-07-28T12:02:24;1.63;;;1.53;;
6141;SDS011;71289;51.552;6.210;2023-07-28T12:04:51;2.73;;;2.23;;
6141;SDS011;71289;51.552;6.210;2023-07-28T12:07:19;2.13;;;1.87;;
6141;SDS011;71289;51.552;6.210;2023-07-28T12:09:52;1.60;;;1.50;;
6141;SDS011;71289;51.552;6.210;2023-07-28T12:12:19;4.73;;;1.63;;
6141;SDS011;71289;51.552;6.210;2023-07-28T12:14:45;1.40;;;1.30;;
6141;SDS011;71289;51.552;6.210;2023-07-28T12:17:16;5.30;;;1.37;;
6141;SDS011;71289;51.552;6.210;2023-07-28T12:19:55;1.53;;;1.30;;
6141;SDS011;71289;51.552;6.210;2023-07-28T12:22:25;1.60;;;1.00;;
6141;SDS011;71289;51.552;6.210;2023-07-28T12:24:52;1.53;;;1.43;;
6141;SDS011;71289;51.552;6.210;2023-07-28T12:27:18;2.90;;;1.30;;
6141;SDS011;71289;51.552;6.210;2023-07-28T12:29:45;3.07;;;1.00;;
6141;SDS011;71289;51.552;6.210;2023-07-28T12:32:11;1.23;;;0.80;;
6141;SDS011;71289;51.552;6.210;2023-07-28T12:34:37;1.07;;;0.97;;
6141;SDS011;71289;51.552;6.210;2023-07-28T12:37:02;1.13;;;0.87;;
6141;SDS011;71289;51.552;6.210;2023-07-28T12:39:28;2.13;;;1.10;;
6141;SDS011;71289;51.552;6.210;2023-07-28T12:41:54;2.50;;;1.20;;
6141;SDS011;71289;51.552;6.210;2023-07-28T12:44:19;0.93;;;0.90;;
6141;SDS011;71289;51.552;6.210;2023-07-28T12:46:45;2.03;;;1.93;;
6141;SDS011;71289;51.552;6.210;2023-07-28T12:49:11;1.63;;;1.10;;
6141;SDS011;71289;51.552;6.210;2023-07-28T12:51:37;1.10;;;1.00;;
6141;SDS011;71289;51.552;6.210;2023-07-28T12:54:02;3.27;;;1.20;;
6141;SDS011;71289;51.552;6.210;2023-07-28T12:56:28;2.57;;;1.50;;
6141;SDS011;71289;51.552;6.210;2023-07-28T12:58:53;1.40;;;1.30;;
6141;SDS011;71289;51.552;6.210;2023-07-28T13:01:19;2.90;;;1.67;;
6141;SDS011;71289;51.552;6.210;2023-07-28T13:03:45;1.30;;;1.20;;
6141;SDS011;71289;51.552;6.210;2023-07-28T13:06:10;1.90;;;1.60;;
6141;SDS011;71289;51.552;6.210;2023-07-28T13:08:36;5.30;;;1.53;;
6141;SDS011;71289;51.552;6.210;2023-07-28T13:11:01;1.07;;;0.90;;
6141;SDS011;71289;51.552;6.210;2023-07-28T13:13:28;2.30;;;1.40;;
6141;SDS011;71289;51.552;6.210;2023-07-28T13:15:55;1.83;;;1.37;;
6141;SDS011;71289;51.552;6.210;2023-07-28T13:18:21;1.47;;;1.40;;
6141;SDS011;71289;51.552;6.210;2023-07-28T13:20:46;1.50;;;1.40;;
6141;SDS011;71289;51.552;6.210;2023-07-28T13:23:12;1.97;;;1.53;;
6141;SDS011;71289;51.552;6.210;2023-07-28T13:25:37;1.90;;;1.60;;
6141;SDS011;71289;51.552;6.210;2023-07-28T13:28:03;1.30;;;1.20;;
6141;SDS011;71289;51.552;6.210;2023-07-28T13:30:29;2.60;;;1.20;;
6141;SDS011;71289;51.552;6.210;2023-07-28T13:32:55;1.10;;;1.10;;
6141;SDS011;71289;51.552;6.210;2023-07-28T13:35:20;8.43;;;1.00;;
6141;SDS011;71289;51.552;6.210;2023-07-28T13:37:46;1.30;;;1.20;;
6141;SDS011;71289;51.552;6.210;2023-07-28T13:40:11;1.00;;;1.00;;
6141;SDS011;71289;51.552;6.210;2023-07-28T13:42:37;1.40;;;1.30;;
6141;SDS011;71289;51.552;6.210;2023-07-28T13:45:02;1.43;;;1.27;;
6141;SDS011;71289;51.552;6.210;2023-07-28T13:47:28;1.30;;;1.27;;
6141;SDS011;71289;51.552;6.210;2023-07-28T13:49:54;1.80;;;1.70;;
6141;SDS011;71289;51.552;6.210;2023-07-28T13:52:19;2.00;;;1.60;;
6141;SDS011;71289;51.552;6.210;2023-07-28T13:54:45;1.90;;;1.40;;
6141;SDS011;71289;51.552;6.210;2023-07-28T13:57:10;1.93;;;1.40;;
6141;SDS011;71289;51.552;6.210;2023-07-28T13:59:36;1.33;;;1.17;;
6141;SDS011;71289;51.552;6.210;2023-07-28T14:02:02;1.37;;;1.27;;
6141;SDS011;71289;51.552;6.210;2023-07-28T14:04:28;18.33;;;1.33;;
6141;SDS011;71289;51.552;6.210;2023-07-28T14:06:53;1.53;;;1.20;;
6141;SDS011;71289;51.552;6.210;2023-07-28T14:09:19;1.70;;;1.00;;
6141;SDS011;71289;51.552;6.210;2023-07-28T14:11:45;1.80;;;0.97;;
6141;SDS011;71289;51.552;6.210;2023-07-28T14:14:10;1.23;;;0.80;;
6141;SDS011;71289;51.552;6.210;2023-07-28T14:16:36;1.30;;;0.90;;
6141;SDS011;71289;51.552;6.210;2023-07-28T14:19:01;2.73;;;0.90;;
6141;SDS011;71289;51.552;6.210;2023-07-28T14:21:28;1.20;;;0.53;;
6141;SDS011;71289;51.552;6.210;2023-07-28T14:23:53;2.60;;;0.73;;
6141;SDS011;71289;51.552;6.210;2023-07-28T14:26:19;2.10;;;1.63;;
6141;SDS011;71289;51.552;6.210;2023-07-28T14:28:44;1.63;;;0.70;;
6141;SDS011;71289;51.552;6.210;2023-07-28T14:31:10;0.97;;;0.63;;
6141;SDS011;71289;51.552;6.210;2023-07-28T14:33:35;0.73;;;0.63;;
6141;SDS011;71289;51.552;6.210;2023-07-28T14:36:01;0.97;;;0.97;;
6141;SDS011;71289;51.552;6.210;2023-07-28T14:38:26;0.80;;;0.80;;
6141;SDS011;71289;51.552;6.210;2023-07-28T14:40:52;5.93;;;0.73;;
6141;SDS011;71289;51.552;6.210;2023-07-28T14:43:17;1.07;;;0.97;;
6141;SDS011;71289;51.552;6.210;2023-07-28T14:45:43;0.80;;;0.70;;
6141;SDS011;71289;51.552;6.210;2023-07-28T14:48:09;0.60;;;0.60;;